createdAt,value
2023-05-05T00:00:15.930Z,4.25
2023-05-05T00:02:44.245Z,6.22
2023-05-05T00:05:12.286Z,4.80
2023-05-05T00:07:40.346Z,4.53
2023-05-05T00:10:10.628Z,6.72
2023-05-05T00:12:38.709Z,5.68
2023-05-05T00:15:07.862Z,6.30
2023-05-05T00:17:35.942Z,6.72
2023-05-05T00:20:04.252Z,4.70
2023-05-05T00:22:32.282Z,7.03
2023-05-05T00:25:00.272Z,8.80
2023-05-05T00:27:29.639Z,7.18
2023-05-05T00:29:57.708Z,8.45
2023-05-05T00:32:25.957Z,7.85
2023-05-05T00:34:54.628Z,8.75
2023-05-05T00:37:22.691Z,9.98
2023-05-05T00:39:50.845Z,6.80
2023-05-05T00:42:19.131Z,7.15
2023-05-05T00:44:48.614Z,5.03
2023-05-05T00:47:16.921Z,6.40
2023-05-05T00:49:45.093Z,8.30
2023-05-05T00:52:13.194Z,5.90
2023-05-05T00:54:41.386Z,6.43
2023-05-05T00:57:09.510Z,5.53
2023-05-05T00:59:39.257Z,6.93
2023-05-05T01:02:08.825Z,5.65
2023-05-05T01:04:36.937Z,6.82
2023-05-05T01:07:13.613Z,7.18
2023-05-05T01:09:57.923Z,7.35
2023-05-05T01:12:42.516Z,4.93
2023-05-05T01:15:17.125Z,5.78
2023-05-05T01:17:53.610Z,9.13
2023-05-05T01:20:28.601Z,5.97
2023-05-05T01:23:00.658Z,6.97
2023-05-05T01:26:10.276Z,6.03
2023-05-05T01:29:02.155Z,5.30
2023-05-05T01:31:53.177Z,6.50
2023-05-05T01:34:26.451Z,5.40
2023-05-05T01:37:04.718Z,4.72
2023-05-05T01:39:36.098Z,6.63
2023-05-05T01:42:09.433Z,9.27
2023-05-05T01:44:38.914Z,6.75
2023-05-05T01:47:10.300Z,6.20
2023-05-05T01:49:39.383Z,5.38
2023-05-05T01:52:08.251Z,6.97
2023-05-05T01:54:37.701Z,5.20
2023-05-05T01:57:08.501Z,5.18
2023-05-05T01:59:39.136Z,5.38
2023-05-05T02:02:11.490Z,5.43
2023-05-05T02:04:44.648Z,7.15
2023-05-05T02:07:14.774Z,8.05
2023-05-05T02:09:45.083Z,5.80
2023-05-05T02:12:13.985Z,5.38
2023-05-05T02:14:44.218Z,6.93
2023-05-05T02:17:18.173Z,6.28
2023-05-05T02:19:48.931Z,8.98
2023-05-05T02:22:17.147Z,6.22
2023-05-05T02:24:45.928Z,8.40
2023-05-05T02:27:18.932Z,7.28
2023-05-05T02:29:50.539Z,5.80
2023-05-05T02:32:24.360Z,8.60
2023-05-05T02:34:54.285Z,7.80
2023-05-05T02:37:25.771Z,7.47
2023-05-05T02:40:02.641Z,6.20
2023-05-05T02:42:37.524Z,7.00
2023-05-05T02:45:12.375Z,8.50
2023-05-05T02:47:44.892Z,8.60
2023-05-05T02:50:13.437Z,8.63
2023-05-05T02:52:47.464Z,8.68
2023-05-05T02:55:16.860Z,8.93
2023-05-05T02:57:50.934Z,8.02
2023-05-05T03:00:24.312Z,10.60
2023-05-05T03:03:05.359Z,11.40
2023-05-05T03:05:42.735Z,13.98
2023-05-05T03:08:15.341Z,11.95
2023-05-05T03:10:48.737Z,11.82
2023-05-05T03:13:19.719Z,8.90
2023-05-05T03:15:50.738Z,8.43
2023-05-05T03:18:25.549Z,8.32
2023-05-05T03:21:07.943Z,13.43
2023-05-05T03:23:38.250Z,11.90
2023-05-05T03:26:11.376Z,11.85
2023-05-05T03:28:43.193Z,10.07
2023-05-05T03:31:30.430Z,9.27
2023-05-05T03:34:02.789Z,10.10
2023-05-05T03:36:36.967Z,11.65
2023-05-05T03:39:05.251Z,9.10
2023-05-05T03:41:34.984Z,10.23
2023-05-05T03:44:04.190Z,8.70
2023-05-05T03:46:32.462Z,10.75
2023-05-05T03:49:01.956Z,7.68
2023-05-05T03:51:30.006Z,12.20
2023-05-05T03:53:58.909Z,10.05
2023-05-05T03:56:26.993Z,9.05
2023-05-05T03:58:55.093Z,9.75
2023-05-05T04:01:23.425Z,12.30
2023-05-05T04:03:52.074Z,12.93
2023-05-05T04:06:22.372Z,11.30
2023-05-05T04:08:50.444Z,9.80
2023-05-05T04:11:18.568Z,12.23
2023-05-05T04:13:46.726Z,9.43
2023-05-05T04:16:14.893Z,10.65
2023-05-05T04:18:42.984Z,11.45
2023-05-05T04:21:11.086Z,10.23
2023-05-05T04:23:41.075Z,10.20
2023-05-05T04:26:09.199Z,11.80
2023-05-05T04:28:37.259Z,10.27
2023-05-05T04:31:06.172Z,8.55
2023-05-05T04:33:37.458Z,9.05
2023-05-05T04:36:06.197Z,9.13
2023-05-05T04:38:34.551Z,14.40
2023-05-05T04:41:07.529Z,13.77
2023-05-05T04:43:37.896Z,8.52
2023-05-05T04:46:06.451Z,6.70
2023-05-05T04:48:37.955Z,8.57
2023-05-05T04:51:07.155Z,12.25
2023-05-05T04:53:36.064Z,7.93
2023-05-05T04:56:04.327Z,8.93
2023-05-05T04:58:33.791Z,12.02
2023-05-05T05:01:01.862Z,12.55
2023-05-05T05:03:32.021Z,11.80
2023-05-05T05:06:00.434Z,12.93
2023-05-05T05:08:28.471Z,8.80
2023-05-05T05:10:56.468Z,8.57
2023-05-05T05:13:24.658Z,11.50
2023-05-05T05:15:54.210Z,10.23
2023-05-05T05:18:22.377Z,7.72
2023-05-05T05:20:51.611Z,9.63
2023-05-05T05:23:19.699Z,7.50
2023-05-05T05:25:48.103Z,9.15
2023-05-05T05:28:18.842Z,8.77
2023-05-05T05:30:52.136Z,11.05
2023-05-05T05:33:22.067Z,13.25
2023-05-05T05:35:50.780Z,9.23
2023-05-05T05:38:21.137Z,9.88
2023-05-05T05:40:51.791Z,8.63
2023-05-05T05:43:19.864Z,10.88
2023-05-05T05:45:48.012Z,12.75
2023-05-05T05:48:17.122Z,10.82
2023-05-05T05:50:46.785Z,10.18
2023-05-05T05:53:15.023Z,11.13
2023-05-05T05:55:43.613Z,9.88
2023-05-05T05:58:11.737Z,9.35
2023-05-05T06:00:39.790Z,14.50
2023-05-05T06:03:10.446Z,12.55
2023-05-05T06:05:40.036Z,11.90
2023-05-05T06:08:09.530Z,11.27
2023-05-05T06:10:42.774Z,7.93
2023-05-05T06:13:16.251Z,9.77
2023-05-05T06:15:47.649Z,10.82
2023-05-05T06:18:16.495Z,9.52
2023-05-05T06:20:44.909Z,10.10
2023-05-05T06:23:16.426Z,6.85
2023-05-05T06:25:49.564Z,10.82
2023-05-05T06:28:17.725Z,11.20
2023-05-05T06:30:45.741Z,10.45
2023-05-05T06:33:13.693Z,8.05
2023-05-05T06:35:41.752Z,9.93
2023-05-05T06:38:10.238Z,7.95
2023-05-05T06:40:39.606Z,9.27
2023-05-05T06:43:07.759Z,7.35
2023-05-05T06:45:43.770Z,10.68
2023-05-05T06:48:12.008Z,10.15
2023-05-05T06:50:39.957Z,11.68
2023-05-05T06:53:08.023Z,9.15
2023-05-05T06:55:36.019Z,10.77
2023-05-05T06:58:05.475Z,11.35
2023-05-05T07:00:33.634Z,16.02
2023-05-05T07:03:01.794Z,8.40
2023-05-05T07:05:29.806Z,8.27
2023-05-05T07:07:58.450Z,7.68
2023-05-05T07:10:27.396Z,10.93
2023-05-05T07:12:55.921Z,7.30
2023-05-05T07:15:29.118Z,7.90
2023-05-05T07:17:58.115Z,9.35
2023-05-05T07:20:26.872Z,9.25
2023-05-05T07:22:55.261Z,10.18
2023-05-05T07:25:23.275Z,11.05
2023-05-05T07:27:51.568Z,10.90
2023-05-05T07:30:20.093Z,11.73
2023-05-05T07:32:51.209Z,13.85
2023-05-05T07:35:19.524Z,10.55
2023-05-05T07:37:47.788Z,11.45
2023-05-05T07:40:15.826Z,14.77
2023-05-05T07:42:43.918Z,15.68
2023-05-05T07:45:12.832Z,10.30
2023-05-05T07:47:41.681Z,12.65
2023-05-05T07:50:11.806Z,18.73
2023-05-05T07:55:11.387Z,14.10
2023-05-05T07:57:39.583Z,14.75
2023-05-05T08:00:09.435Z,12.20
2023-05-05T08:02:41.288Z,13.00
2023-05-05T08:05:11.469Z,11.75
2023-05-05T08:07:41.455Z,14.73
2023-05-05T08:10:10.995Z,15.68
2023-05-05T08:12:39.191Z,12.60
2023-05-05T08:15:08.255Z,13.48
2023-05-05T08:17:50.710Z,15.80
2023-05-05T08:20:21.633Z,11.55
2023-05-05T08:22:50.735Z,12.93
2023-05-05T08:25:18.751Z,11.85
2023-05-05T08:27:46.825Z,17.20
2023-05-05T08:30:17.269Z,16.08
2023-05-05T08:32:45.414Z,15.07
2023-05-05T08:35:13.657Z,18.45
2023-05-05T08:37:43.296Z,19.30
2023-05-05T08:40:14.179Z,14.27
2023-05-05T08:42:42.403Z,15.25
2023-05-05T08:45:11.616Z,14.98
2023-05-05T08:47:40.758Z,15.52
2023-05-05T08:50:12.017Z,16.13
2023-05-05T08:52:44.347Z,18.88
2023-05-05T08:55:24.081Z,21.23
2023-05-05T08:57:53.644Z,17.92
2023-05-05T09:00:22.929Z,14.55
2023-05-05T09:02:51.402Z,15.80
2023-05-05T09:05:19.617Z,15.13
2023-05-05T09:07:47.719Z,10.90
2023-05-05T09:10:17.352Z,17.98
2023-05-05T09:12:45.508Z,11.77
2023-05-05T09:15:15.534Z,17.45
2023-05-05T09:17:43.801Z,12.52
2023-05-05T09:20:13.028Z,12.27
2023-05-05T09:22:42.647Z,12.25
2023-05-05T09:25:12.738Z,17.55
2023-05-05T09:27:43.459Z,14.13
2023-05-05T09:30:13.157Z,12.38
2023-05-05T09:32:49.072Z,14.45
2023-05-05T09:35:17.799Z,14.10
2023-05-05T09:37:46.478Z,11.57
2023-05-05T09:40:16.385Z,15.27
2023-05-05T09:42:46.021Z,12.18
2023-05-05T09:45:27.975Z,13.15
2023-05-05T09:47:59.754Z,18.23
2023-05-05T09:50:30.967Z,12.02
2023-05-05T09:53:01.092Z,14.07
2023-05-05T09:55:31.033Z,12.05
2023-05-05T09:58:19.632Z,14.85
2023-05-05T10:00:48.172Z,11.52
2023-05-05T10:03:16.375Z,17.20
2023-05-05T10:05:52.525Z,9.45
2023-05-05T10:08:22.053Z,10.75
2023-05-05T10:10:54.462Z,9.30
2023-05-05T10:13:26.136Z,7.53
2023-05-05T10:15:55.968Z,9.90
2023-05-05T10:18:26.084Z,13.27
2023-05-05T10:20:58.468Z,10.52
2023-05-05T10:23:32.028Z,8.85
2023-05-05T10:26:03.302Z,8.15
2023-05-05T10:28:35.714Z,6.03
2023-05-05T10:31:13.170Z,5.40
2023-05-05T10:33:55.551Z,3.80
2023-05-05T10:36:25.390Z,6.32
2023-05-05T10:38:56.314Z,6.85
2023-05-05T10:41:25.784Z,5.38
2023-05-05T10:43:57.234Z,5.13
2023-05-05T10:46:26.688Z,6.47
2023-05-05T10:49:01.120Z,4.97
2023-05-05T10:51:40.636Z,7.90
2023-05-05T10:54:15.055Z,7.97
2023-05-05T10:56:44.083Z,7.93
2023-05-05T10:59:47.846Z,7.72
2023-05-05T11:02:23.642Z,5.30
2023-05-05T11:05:14.306Z,5.80
2023-05-05T11:07:43.082Z,8.82
2023-05-05T11:10:12.668Z,4.50
2023-05-05T11:13:14.126Z,6.88
2023-05-05T11:15:43.583Z,5.47
2023-05-05T11:18:35.915Z,4.72
2023-05-05T11:21:21.847Z,4.35
2023-05-05T11:23:51.723Z,4.22
2023-05-05T11:26:41.075Z,4.80
2023-05-05T11:29:09.317Z,3.75
2023-05-05T11:31:38.991Z,4.45
2023-05-05T11:34:29.677Z,4.00
2023-05-05T11:37:08.743Z,6.55
2023-05-05T11:39:48.421Z,4.40
2023-05-05T11:42:24.728Z,4.13
2023-05-05T11:44:53.641Z,3.10
2023-05-05T11:47:35.285Z,5.63
2023-05-05T11:50:23.424Z,5.43
2023-05-05T11:52:51.767Z,3.95
2023-05-05T11:55:26.021Z,4.07
2023-05-05T11:57:54.037Z,5.47
2023-05-05T12:00:32.760Z,4.93
2023-05-05T12:03:02.495Z,5.97
2023-05-05T12:05:30.985Z,5.00
2023-05-05T12:07:59.810Z,10.88
2023-05-05T12:10:28.817Z,5.10
2023-05-05T12:12:57.222Z,5.55
2023-05-05T12:15:34.391Z,6.47
2023-05-05T12:18:05.960Z,7.80
2023-05-05T12:20:35.149Z,6.80
2023-05-05T12:23:04.938Z,8.02
2023-05-05T12:25:38.198Z,9.07
2023-05-05T12:28:08.082Z,5.60
2023-05-05T12:30:36.677Z,5.32
2023-05-05T12:33:07.798Z,5.18
2023-05-05T12:35:37.110Z,7.10
2023-05-05T12:38:05.248Z,4.97
2023-05-05T12:40:47.751Z,4.30
2023-05-05T12:43:32.781Z,7.18
2023-05-05T12:46:06.298Z,5.43
2023-05-05T12:48:38.035Z,6.57
2023-05-05T12:51:20.905Z,7.32
2023-05-05T12:53:50.663Z,4.07
2023-05-05T12:56:36.326Z,4.65
2023-05-05T12:59:06.532Z,4.30
2023-05-05T13:01:35.296Z,3.75
2023-05-05T13:04:13.149Z,3.72
2023-05-05T13:06:42.634Z,5.55
2023-05-05T13:09:23.173Z,6.07
2023-05-05T13:11:51.639Z,4.65
2023-05-05T13:14:19.857Z,6.00
2023-05-05T13:16:48.079Z,3.42
2023-05-05T13:19:17.503Z,4.53
2023-05-05T13:21:45.455Z,4.47
2023-05-05T13:24:28.128Z,3.67
2023-05-05T13:26:59.471Z,2.83
2023-05-05T13:29:31.398Z,4.32
2023-05-05T13:32:00.052Z,3.92
2023-05-05T13:34:29.667Z,4.57
2023-05-05T13:36:57.816Z,4.53
2023-05-05T13:39:25.927Z,4.47
2023-05-05T13:41:54.586Z,2.97
2023-05-05T13:44:23.061Z,4.93
2023-05-05T13:46:51.073Z,3.55
2023-05-05T13:49:20.063Z,4.28
2023-05-05T13:51:49.514Z,3.83
2023-05-05T13:54:17.566Z,3.22
2023-05-05T13:56:45.738Z,3.38
2023-05-05T13:59:13.919Z,4.78
2023-05-05T14:01:42.032Z,4.03
2023-05-05T14:04:10.181Z,3.45
2023-05-05T14:06:38.194Z,4.60
2023-05-05T14:09:08.184Z,3.95
2023-05-05T14:11:36.389Z,5.40
2023-05-05T14:14:04.525Z,3.65
2023-05-05T14:16:32.722Z,3.67
2023-05-05T14:19:00.740Z,5.07
2023-05-05T14:21:28.829Z,5.93
2023-05-05T14:23:56.873Z,6.70
2023-05-05T14:26:27.270Z,3.83
2023-05-05T14:28:55.297Z,4.07
2023-05-05T14:31:23.370Z,3.83
2023-05-05T14:33:51.383Z,7.63
2023-05-05T14:36:19.452Z,4.75
2023-05-05T14:38:47.602Z,5.38
2023-05-05T14:41:15.731Z,5.18
2023-05-05T14:43:45.258Z,3.72
2023-05-05T14:46:13.357Z,8.65
2023-05-05T14:48:41.419Z,6.10
2023-05-05T14:51:09.457Z,4.78
2023-05-05T14:53:37.510Z,3.63
2023-05-05T14:56:06.155Z,2.58
2023-05-05T14:58:34.207Z,2.03
2023-05-05T15:01:03.649Z,3.05
2023-05-05T15:03:32.316Z,1.60
2023-05-05T15:06:00.611Z,2.22
2023-05-05T15:08:28.725Z,2.17
2023-05-05T15:10:56.685Z,3.15
2023-05-05T15:13:25.031Z,2.35
2023-05-05T15:15:53.090Z,1.92
2023-05-05T15:18:22.645Z,1.65
2023-05-05T15:20:50.928Z,1.40
2023-05-05T15:23:19.021Z,2.40
2023-05-05T15:25:47.067Z,1.77
2023-05-05T15:28:15.161Z,1.42
2023-05-05T15:30:45.383Z,1.42
2023-05-05T15:33:13.412Z,1.08
2023-05-05T15:35:42.812Z,3.70
2023-05-05T15:38:10.870Z,1.73
2023-05-05T15:40:38.937Z,1.55
2023-05-05T15:43:06.933Z,1.70
2023-05-05T15:45:35.210Z,1.15
2023-05-05T15:48:03.326Z,2.05
2023-05-05T15:50:31.368Z,1.02
2023-05-05T15:53:00.873Z,2.50
2023-05-05T15:55:29.358Z,1.77
2023-05-05T15:57:57.354Z,2.42
2023-05-05T16:00:25.698Z,2.47
2023-05-05T16:02:53.793Z,1.95
2023-05-05T16:05:23.199Z,2.25
2023-05-05T16:07:52.569Z,3.45
2023-05-05T16:10:22.216Z,3.28
2023-05-05T16:12:52.166Z,3.50
2023-05-05T16:15:20.597Z,3.28
2023-05-05T16:17:48.588Z,4.00
2023-05-05T16:20:16.960Z,3.67
2023-05-05T16:22:44.962Z,3.75
2023-05-05T16:25:12.962Z,3.42
2023-05-05T16:27:42.371Z,6.43
2023-05-05T16:30:12.852Z,2.80
2023-05-05T16:32:40.899Z,4.03
2023-05-05T16:35:09.538Z,4.65
2023-05-05T16:37:37.649Z,2.50
2023-05-05T16:40:07.213Z,8.13
2023-05-05T16:42:35.394Z,2.17
2023-05-05T16:45:05.321Z,3.53
2023-05-05T16:47:33.438Z,2.40
2023-05-05T16:50:01.501Z,2.97
2023-05-05T16:52:29.573Z,2.75
2023-05-05T16:54:57.620Z,2.70
2023-05-05T16:57:25.630Z,3.05
2023-05-05T16:59:56.398Z,2.42
2023-05-05T17:02:26.117Z,2.08
2023-05-05T17:04:54.181Z,1.85
2023-05-05T17:07:22.292Z,4.07
2023-05-05T17:09:51.083Z,6.95
2023-05-05T17:12:19.183Z,2.42
2023-05-05T17:14:47.334Z,1.63
2023-05-05T17:17:15.458Z,1.65
2023-05-05T17:19:44.965Z,2.45
2023-05-05T17:22:13.034Z,1.30
2023-05-05T17:24:41.133Z,1.20
2023-05-05T17:27:09.231Z,1.75
2023-05-05T17:29:40.835Z,2.45
2023-05-05T17:32:09.327Z,5.25
2023-05-05T17:34:37.533Z,1.98
2023-05-05T17:37:06.970Z,1.45
2023-05-05T17:39:34.981Z,3.85
2023-05-05T17:42:03.053Z,1.25
2023-05-05T17:44:32.679Z,2.03
2023-05-05T17:47:02.757Z,2.40
2023-05-05T17:49:30.969Z,1.30
2023-05-05T17:51:59.005Z,3.60
2023-05-05T17:54:28.431Z,1.50
2023-05-05T17:56:56.487Z,3.38
2023-05-05T17:59:24.479Z,2.42
2023-05-05T18:01:52.514Z,1.60
2023-05-05T18:04:20.522Z,6.05
2023-05-05T18:06:48.656Z,1.65
2023-05-05T18:09:17.282Z,1.33
2023-05-05T18:11:46.630Z,1.50
2023-05-05T18:14:14.747Z,3.53
2023-05-05T18:16:47.709Z,1.70
2023-05-05T18:19:16.520Z,1.35
2023-05-05T18:21:44.581Z,2.10
2023-05-05T18:26:50.329Z,2.60
2023-05-05T18:29:18.543Z,5.22
2023-05-05T18:31:48.387Z,2.85
2023-05-05T18:34:17.147Z,2.50
2023-05-05T18:36:45.329Z,4.18
2023-05-05T18:39:13.531Z,3.17
2023-05-05T18:41:41.864Z,2.40
2023-05-05T18:44:11.664Z,3.72
2023-05-05T18:46:39.799Z,3.03
2023-05-05T18:49:08.422Z,4.18
2023-05-05T18:51:36.632Z,3.05
2023-05-05T18:54:04.892Z,3.10
2023-05-05T18:56:33.019Z,3.30
2023-05-05T18:59:01.096Z,3.63
2023-05-05T19:01:31.084Z,3.47
2023-05-05T19:03:59.137Z,2.55
2023-05-05T19:06:27.360Z,3.33
2023-05-05T19:08:55.488Z,6.18
2023-05-05T19:11:23.539Z,3.88
2023-05-05T19:13:51.605Z,3.47
2023-05-05T19:16:19.690Z,3.42
2023-05-05T19:18:49.362Z,6.35
2023-05-05T19:21:17.432Z,5.28
2023-05-05T19:23:45.511Z,5.53
2023-05-05T19:26:13.979Z,2.90
2023-05-05T19:28:42.050Z,8.00
2023-05-05T19:31:10.122Z,2.65
2023-05-05T19:33:38.365Z,3.28
2023-05-05T19:36:08.251Z,3.83
2023-05-05T19:38:36.684Z,3.17
2023-05-05T19:41:04.668Z,3.80
2023-05-05T19:43:32.700Z,2.78
2023-05-05T19:46:01.693Z,3.63
2023-05-05T19:48:29.928Z,2.65
2023-05-05T19:50:57.956Z,4.03
2023-05-05T19:53:27.910Z,4.18
2023-05-05T19:55:56.179Z,2.92
2023-05-05T19:58:24.934Z,3.03
2023-05-05T20:00:53.049Z,2.58
2023-05-05T20:03:21.353Z,3.92
2023-05-05T20:05:49.656Z,3.58
2023-05-05T20:08:17.739Z,4.10
2023-05-05T20:10:47.160Z,3.83
2023-05-05T20:13:15.216Z,4.18
2023-05-05T20:15:43.397Z,4.65
2023-05-05T20:18:11.612Z,3.95
2023-05-05T20:20:39.659Z,4.85
2023-05-05T20:23:07.709Z,5.28
2023-05-05T20:25:35.836Z,7.40
2023-05-05T20:28:05.412Z,6.85
2023-05-05T20:30:33.483Z,7.00
2023-05-05T20:33:01.555Z,7.40
2023-05-05T20:35:29.581Z,10.93
2023-05-05T20:37:57.631Z,9.00
2023-05-05T20:40:26.782Z,14.63
2023-05-05T20:42:54.873Z,18.20
2023-05-05T20:45:24.978Z,15.80
2023-05-05T20:47:53.311Z,21.05
2023-05-05T20:50:21.529Z,19.10
2023-05-05T20:52:49.826Z,18.50
2023-05-05T20:55:17.987Z,15.55
2023-05-05T20:57:46.006Z,21.13
2023-05-05T21:00:14.381Z,14.25
2023-05-05T21:02:44.175Z,19.30
2023-05-05T21:05:12.636Z,21.10
2023-05-05T21:07:40.869Z,15.55
2023-05-05T21:10:10.178Z,21.45
2023-05-05T21:12:38.407Z,17.10
2023-05-05T21:15:08.364Z,18.33
2023-05-05T21:17:37.664Z,18.90
2023-05-05T21:20:08.700Z,17.15
2023-05-05T21:22:36.972Z,17.83
2023-05-05T21:25:15.672Z,12.80
2023-05-05T21:27:43.845Z,13.90
2023-05-05T21:30:13.133Z,16.90
2023-05-05T21:32:42.156Z,14.48
2023-05-05T21:35:11.743Z,14.10
2023-05-05T21:37:40.149Z,15.55
2023-05-05T21:40:13.550Z,14.57
2023-05-05T21:42:42.457Z,16.80
2023-05-05T21:45:12.027Z,23.05
2023-05-05T21:47:40.124Z,21.85
2023-05-05T21:50:09.844Z,26.92
2023-05-05T21:52:39.641Z,26.98
2023-05-05T21:55:08.359Z,24.55
2023-05-05T21:57:36.424Z,20.58
2023-05-05T22:00:05.716Z,26.48
2023-05-05T22:02:40.507Z,17.65
2023-05-05T22:05:09.298Z,20.40
2023-05-05T22:07:37.534Z,22.35
2023-05-05T22:10:08.216Z,22.33
2023-05-05T22:12:36.601Z,20.05
2023-05-05T22:15:05.086Z,20.77
2023-05-05T22:17:33.212Z,20.05
2023-05-05T22:20:01.246Z,17.10
2023-05-05T22:22:29.294Z,19.38
2023-05-05T22:24:57.314Z,16.90
2023-05-05T22:27:26.904Z,16.77
2023-05-05T22:29:54.971Z,18.20
2023-05-05T22:32:23.024Z,19.10
2023-05-05T22:34:51.115Z,13.38
2023-05-05T22:37:19.191Z,15.30
2023-05-05T22:39:47.247Z,11.60
2023-05-05T22:42:15.400Z,10.95
2023-05-05T22:44:44.897Z,11.63
2023-05-05T22:47:13.316Z,14.50
2023-05-05T22:49:41.490Z,13.13
2023-05-05T22:52:09.683Z,14.35
2023-05-05T22:54:37.676Z,15.23
2023-05-05T22:57:05.742Z,14.60
2023-05-05T22:59:33.769Z,13.75
2023-05-05T23:02:03.174Z,14.23
2023-05-05T23:04:31.293Z,15.65
2023-05-05T23:06:59.391Z,17.15
2023-05-05T23:09:27.440Z,16.92
2023-05-05T23:11:55.525Z,13.30
2023-05-05T23:14:23.543Z,15.30
2023-05-05T23:16:51.672Z,15.10
2023-05-05T23:19:21.256Z,14.05
2023-05-05T23:21:53.642Z,14.48
2023-05-05T23:24:22.749Z,11.75
2023-05-05T23:26:52.020Z,14.55
2023-05-05T23:29:20.078Z,14.77
2023-05-05T23:31:48.524Z,15.23
2023-05-05T23:34:16.707Z,13.43
2023-05-05T23:36:46.202Z,12.10
2023-05-05T23:39:14.271Z,15.00
2023-05-05T23:41:42.406Z,17.60
2023-05-05T23:44:10.463Z,17.98
2023-05-05T23:46:38.529Z,16.33
2023-05-05T23:49:06.629Z,18.60
2023-05-05T23:51:34.714Z,18.50
2023-05-05T23:54:04.100Z,16.25
2023-05-05T23:56:32.257Z,17.58
2023-05-05T23:59:00.235Z,18.02
